Thunder radar more information blitzortung!


Radar de pluja more information rain snow radar


Visita la nostra xarxa de llocs de meteo:

Template documentation
and downloads

And another site



No particular awareness of the weather is required.    There are no Weather-warnings

Pagina Historial Weather Underground text

Diari Resum May 20, 2017 Unitats:  Tant    Imperial   Mètric
« Previous Dia
SegĂźent Dia »
Diari Setmana Mensual Anual Personalitzada
  Maxima: Minima: Media:
Temperatura: 79 °F /  26.1 °C 52.3 °F /  11.3 °C 67.1 °F /  19.5 °C
Punt de rosada: 51.4 °F /  10.8 °C 41.7 °F /  5.4 °C 46.6 °F /  8.1 °C
Humitat: 78 % 28 % 51 %
Wind Speed: 11.5 mph /  18.5 km/h - 4.2 mph /  6.7 km/h
RĂ fegues de vent: 11.5 mph /  18.5 km/h - -
Vent:- - SSE
Pression baro: 30.3 in /  1026.0 hPa 30.1 in /  1019.9 hPa -
Precipitacions: 0 in /  0.0 mm    
Historical Graphs
 
 
Dades de taula per May 20, 2017
Temps Temperatura Punt de rosada Pression baro Vent Wind Speed RĂ fegues de vent Humitat Rainfall Rate (Hourly)
00:00 54.9 °F /  12.7 °C 45 °F /  7.2 °C 30.2 in /  1021.9 hPa Calm   3 mph /  4.8 km/h 69 % 0 in /  0.0 mm
00:02 58.5 °F /  14.7 °C 46.2 °F /  7.9 °C 30.1 in /  1019.9 hPa NE 1.4 mph /  2.3 km/h   64 % 0 in /  0.0 mm
00:07 58.5 °F /  14.7 °C 46.2 °F /  7.9 °C 30.1 in /  1019.9 hPa NNE 1.2 mph /  1.9 km/h   64 % 0 in /  0.0 mm
00:10 54.5 °F /  12.5 °C 44.4 °F /  6.9 °C 30.2 in /  1021.9 hPa Calm   3 mph /  4.8 km/h 69 % 0 in /  0.0 mm
00:20 54.3 °F /  12.4 °C 44.4 °F /  6.9 °C 30.2 in /  1021.9 hPa NNE 1 mph /  1.6 km/h 2 mph /  3.2 km/h 69 % 0 in /  0.0 mm
00:30 54 °F /  12.2 °C 44.1 °F /  6.7 °C 30.2 in /  1021.9 hPa NNE 1 mph /  1.6 km/h 1 mph /  1.6 km/h 69 % 0 in /  0.0 mm
00:40 53.8 °F /  12.1 °C 43.9 °F /  6.6 °C 30.2 in /  1021.9 hPa Calm     69 % 0 in /  0.0 mm
00:50 53.6 °F /  12.0 °C 44.1 °F /  6.7 °C 30.2 in /  1021.9 hPa NNE 1 mph /  1.6 km/h 2 mph /  3.2 km/h 70 % 0 in /  0.0 mm
01:00 53.2 °F /  11.8 °C 43.7 °F /  6.5 °C 30.2 in /  1021.9 hPa Calm     70 % 0 in /  0.0 mm
01:10 53.1 °F /  11.7 °C 43.5 °F /  6.4 °C 30.2 in /  1021.9 hPa Calm   1 mph /  1.6 km/h 70 % 0 in /  0.0 mm
01:20 52.9 °F /  11.6 °C 43.3 °F /  6.3 °C 30.2 in /  1021.9 hPa Calm   2 mph /  3.2 km/h 70 % 0 in /  0.0 mm
01:30 52.7 °F /  11.5 °C 43.2 °F /  6.2 °C 30.2 in /  1021.9 hPa Calm   1 mph /  1.6 km/h 70 % 0 in /  0.0 mm
01:50 52.3 °F /  11.3 °C 42.8 °F /  6.0 °C 30.2 in /  1021.9 hPa NE 1 mph /  1.6 km/h 1 mph /  1.6 km/h 70 % 0 in /  0.0 mm
02:00 52.9 °F /  11.6 °C 43.7 °F /  6.5 °C 30.2 in /  1021.9 hPa Calm   1 mph /  1.6 km/h 71 % 0 in /  0.0 mm
02:10 53.6 °F /  12.0 °C 44.4 °F /  6.9 °C 30.2 in /  1022.9 hPa Calm   2 mph /  3.2 km/h 71 % 0 in /  0.0 mm
02:20 54.7 °F /  12.6 °C 45.5 °F /  7.5 °C 30.2 in /  1022.9 hPa Calm   1 mph /  1.6 km/h 71 % 0 in /  0.0 mm
02:30 55.2 °F /  12.9 °C 45.1 °F /  7.3 °C 30.2 in /  1022.9 hPa East 1 mph /  1.6 km/h 2 mph /  3.2 km/h 69 % 0 in /  0.0 mm
02:40 55.6 °F /  13.1 °C 45.7 °F /  7.6 °C 30.2 in /  1022.9 hPa Calm   1 mph /  1.6 km/h 69 % 0 in /  0.0 mm
02:50 55.8 °F /  13.2 °C 45.3 °F /  7.4 °C 30.2 in /  1022.9 hPa ESE 1 mph /  1.6 km/h 3 mph /  4.8 km/h 68 % 0 in /  0.0 mm
03:00 56.3 °F /  13.5 °C 45.9 °F /  7.7 °C 30.2 in /  1022.9 hPa East 1 mph /  1.6 km/h 2 mph /  3.2 km/h 68 % 0 in /  0.0 mm
03:10 56.5 °F /  13.6 °C 46 °F /  7.8 °C 30.2 in /  1022.9 hPa East 2 mph /  3.2 km/h 3 mph /  4.8 km/h 68 % 0 in /  0.0 mm
03:20 57 °F /  13.9 °C 46.2 °F /  7.9 °C 30.2 in /  1022.9 hPa ENE 2 mph /  3.2 km/h 3 mph /  4.8 km/h 67 % 0 in /  0.0 mm
03:30 57.6 °F /  14.2 °C 46.2 °F /  7.9 °C 30.2 in /  1023.9 hPa NE 2 mph /  3.2 km/h 3 mph /  4.8 km/h 66 % 0 in /  0.0 mm
03:40 58.3 °F /  14.6 °C 46.9 °F /  8.3 °C 30.2 in /  1023.9 hPa NE 1 mph /  1.6 km/h 3 mph /  4.8 km/h 66 % 0 in /  0.0 mm
03:50 59 °F /  15.0 °C 46.8 °F /  8.2 °C 30.2 in /  1023.9 hPa NE 3 mph /  4.8 km/h 3 mph /  4.8 km/h 64 % 0 in /  0.0 mm
04:00 59 °F /  15.0 °C 47.1 °F /  8.4 °C 30.2 in /  1023.9 hPa ENE 1 mph /  1.6 km/h 3 mph /  4.8 km/h 65 % 0 in /  0.0 mm
04:10 60.4 °F /  15.8 °C 48.2 °F /  9.0 °C 30.2 in /  1023.9 hPa ENE 1 mph /  1.6 km/h 3 mph /  4.8 km/h 64 % 0 in /  0.0 mm
04:20 60.4 °F /  15.8 °C 47.8 °F /  8.8 °C 30.2 in /  1023.9 hPa ENE 2 mph /  3.2 km/h 2 mph /  3.2 km/h 63 % 0 in /  0.0 mm
04:30 61.7 °F /  16.5 °C 48 °F /  8.9 °C 30.2 in /  1023.9 hPa SE 2 mph /  3.2 km/h 3 mph /  4.8 km/h 61 % 0 in /  0.0 mm
04:40 61.9 °F /  16.6 °C 47.8 °F /  8.8 °C 30.2 in /  1023.9 hPa SSW 1 mph /  1.6 km/h 2 mph /  3.2 km/h 60 % 0 in /  0.0 mm
04:50 62.1 °F /  16.7 °C 48 °F /  8.9 °C 30.2 in /  1023.9 hPa SW 2 mph /  3.2 km/h 4 mph /  6.4 km/h 60 % 0 in /  0.0 mm
05:00 62.6 °F /  17.0 °C 46.8 °F /  8.2 °C 30.2 in /  1023.9 hPa SW 3 mph /  4.8 km/h 3 mph /  4.8 km/h 56 % 0 in /  0.0 mm
05:10 65.1 °F /  18.4 °C 48.9 °F /  9.4 °C 30.2 in /  1023.9 hPa South 1 mph /  1.6 km/h 3 mph /  4.8 km/h 56 % 0 in /  0.0 mm
05:20 65.3 °F /  18.5 °C 47.7 °F /  8.7 °C 30.2 in /  1023.9 hPa South 1 mph /  1.6 km/h 4 mph /  6.4 km/h 53 % 0 in /  0.0 mm
05:30 65.8 °F /  18.8 °C 48.2 °F /  9.0 °C 30.2 in /  1023.9 hPa SSE 2 mph /  3.2 km/h 4 mph /  6.4 km/h 53 % 0 in /  0.0 mm
10:30 65.7 °F /  18.7 °C 47.5 °F /  8.6 °C 30.2 in /  1023.9 hPa WSW 2.3 mph /  3.7 km/h 3.1 mph /  5.0 km/h 52 % 0 in /  0.0 mm
10:35 65.7 °F /  18.7 °C 46.9 °F /  8.3 °C 30.2 in /  1023.9 hPa East 2.3 mph /  3.7 km/h 2.3 mph /  3.7 km/h 51 % 0 in /  0.0 mm
10:40 66 °F /  18.9 °C 47.5 °F /  8.6 °C 30.2 in /  1023.9 hPa ENE 2.9 mph /  4.7 km/h 2.9 mph /  4.7 km/h 51 % 0 in /  0.0 mm
10:45 66.6 °F /  19.2 °C 46.2 °F /  7.9 °C 30.2 in /  1023.9 hPa SSE 2.3 mph /  3.7 km/h 2.3 mph /  3.7 km/h 48 % 0 in /  0.0 mm
10:50 67.1 °F /  19.5 °C 47.3 °F /  8.5 °C 30.2 in /  1023.9 hPa West 9 mph /  14.5 km/h 9 mph /  14.5 km/h 49 % 0 in /  0.0 mm
10:55 66.7 °F /  19.3 °C 46.9 °F /  8.3 °C 30.2 in /  1023.9 hPa SW 9.2 mph /  14.8 km/h 9.2 mph /  14.8 km/h 49 % 0 in /  0.0 mm
11:00 67.5 °F /  19.7 °C 47.1 °F /  8.4 °C 30.2 in /  1023.9 hPa SSW 4.6 mph /  7.4 km/h 4.6 mph /  7.4 km/h 48 % 0 in /  0.0 mm
11:05 68.5 °F /  20.3 °C 47.5 °F /  8.6 °C 30.2 in /  1023.9 hPa South 4.7 mph /  7.6 km/h 4.7 mph /  7.6 km/h 47 % 0 in /  0.0 mm
11:10 68.7 °F /  20.4 °C 46.6 °F /  8.1 °C 30.2 in /  1023.9 hPa SW 4.6 mph /  7.4 km/h 4.6 mph /  7.4 km/h 45 % 0 in /  0.0 mm
11:15 69.6 °F /  20.9 °C 47.8 °F /  8.8 °C 30.2 in /  1023.9 hPa WSW 4.6 mph /  7.4 km/h 4.6 mph /  7.4 km/h 46 % 0 in /  0.0 mm
11:20 69.4 °F /  20.8 °C 47.1 °F /  8.4 °C 30.2 in /  1023.9 hPa East 5.8 mph /  9.3 km/h 5.8 mph /  9.3 km/h 45 % 0 in /  0.0 mm
11:25 69.6 °F /  20.9 °C 47.3 °F /  8.5 °C 30.2 in /  1023.9 hPa WSW 6.9 mph /  11.1 km/h 6.9 mph /  11.1 km/h 45 % 0 in /  0.0 mm
11:30 70.2 °F /  21.2 °C 47.1 °F /  8.4 °C 30.2 in /  1023.9 hPa SSE 5.8 mph /  9.3 km/h 5.8 mph /  9.3 km/h 44 % 0 in /  0.0 mm
11:35 69.4 °F /  20.8 °C 46.6 °F /  8.1 °C 30.2 in /  1023.9 hPa SSW 8.1 mph /  13.0 km/h 8.1 mph /  13.0 km/h 44 % 0 in /  0.0 mm
11:40 69.6 °F /  20.9 °C 46 °F /  7.8 °C 30.2 in /  1023.9 hPa WSW 9.2 mph /  14.8 km/h 9.2 mph /  14.8 km/h 43 % 0 in /  0.0 mm
11:45 69.8 °F /  21.0 °C 45.7 °F /  7.6 °C 30.2 in /  1023.9 hPa SW 2.3 mph /  3.7 km/h 2.3 mph /  3.7 km/h 42 % 0 in /  0.0 mm
11:50 70.9 °F /  21.6 °C 46.6 °F /  8.1 °C 30.2 in /  1023.9 hPa SSE 5.8 mph /  9.3 km/h 5.8 mph /  9.3 km/h 42 % 0 in /  0.0 mm
11:55 72.1 °F /  22.3 °C 47.8 °F /  8.8 °C 30.2 in /  1023.9 hPa South 3.5 mph /  5.6 km/h 3.5 mph /  5.6 km/h 42 % 0 in /  0.0 mm
12:00 71.6 °F /  22.0 °C 47.3 °F /  8.5 °C 30.2 in /  1023.9 hPa SSE 4.6 mph /  7.4 km/h 4.6 mph /  7.4 km/h 42 % 0 in /  0.0 mm
12:01 71.6 °F /  22.0 °C 46.6 °F /  8.1 °C 30.2 in /  1023.9 hPa SE 9.8 mph /  15.8 km/h 9.8 mph /  15.8 km/h 41 % 0 in /  0.0 mm
12:06 71.8 °F /  22.1 °C 46.8 °F /  8.2 °C 30.2 in /  1023.9 hPa SW 3.8 mph /  6.1 km/h 3.8 mph /  6.1 km/h 41 % 0 in /  0.0 mm
12:11 72 °F /  22.2 °C 46.9 °F /  8.3 °C 30.2 in /  1022.9 hPa WSW 5.8 mph /  9.3 km/h 5.8 mph /  9.3 km/h 41 % 0 in /  0.0 mm
12:16 72.1 °F /  22.3 °C 47.1 °F /  8.4 °C 30.2 in /  1022.9 hPa SSE 5.8 mph /  9.3 km/h 5.8 mph /  9.3 km/h 41 % 0 in /  0.0 mm
12:21 72.5 °F /  22.5 °C 47.5 °F /  8.6 °C 30.2 in /  1022.9 hPa West 5.8 mph /  9.3 km/h 5.8 mph /  9.3 km/h 41 % 0 in /  0.0 mm
12:26 72.7 °F /  22.6 °C 46.9 °F /  8.3 °C 30.2 in /  1022.9 hPa SW 8.1 mph /  13.0 km/h 8.1 mph /  13.0 km/h 40 % 0 in /  0.0 mm
12:31 72 °F /  22.2 °C 45.7 °F /  7.6 °C 30.2 in /  1022.9 hPa WSW 4.6 mph /  7.4 km/h 4.6 mph /  7.4 km/h 39 % 0 in /  0.0 mm
12:36 72.5 °F /  22.5 °C 46 °F /  7.8 °C 30.2 in /  1022.9 hPa WSW 4.9 mph /  7.9 km/h 4.9 mph /  7.9 km/h 39 % 0 in /  0.0 mm
12:41 73.2 °F /  22.9 °C 46.8 °F /  8.2 °C 30.2 in /  1022.9 hPa SW 4.6 mph /  7.4 km/h 4.6 mph /  7.4 km/h 39 % 0 in /  0.0 mm
12:46 73.8 °F /  23.2 °C 46.6 °F /  8.1 °C 30.2 in /  1022.9 hPa SW 3.5 mph /  5.6 km/h 3.5 mph /  5.6 km/h 38 % 0 in /  0.0 mm
12:51 73.2 °F /  22.9 °C 46 °F /  7.8 °C 30.2 in /  1022.9 hPa WSW 5.8 mph /  9.3 km/h 5.8 mph /  9.3 km/h 38 % 0 in /  0.0 mm
12:56 73 °F /  22.8 °C 45.9 °F /  7.7 °C 30.2 in /  1022.9 hPa SSE 9.2 mph /  14.8 km/h 9.2 mph /  14.8 km/h 38 % 0 in /  0.0 mm
13:01 72.3 °F /  22.4 °C 45.3 °F /  7.4 °C 30.2 in /  1022.9 hPa ESE 3.5 mph /  5.6 km/h 3.5 mph /  5.6 km/h 38 % 0 in /  0.0 mm
13:06 72 °F /  22.2 °C 44.2 °F /  6.8 °C 30.2 in /  1022.9 hPa ENE 3.5 mph /  5.6 km/h 3.5 mph /  5.6 km/h 37 % 0 in /  0.0 mm
13:11 73.2 °F /  22.9 °C 46 °F /  7.8 °C 30.2 in /  1022.9 hPa SW 3.1 mph /  5.0 km/h 3.1 mph /  5.0 km/h 38 % 0 in /  0.0 mm
13:16 74.8 °F /  23.8 °C 46 °F /  7.8 °C 30.2 in /  1022.9 hPa SE 4.6 mph /  7.4 km/h 4.6 mph /  7.4 km/h 36 % 0 in /  0.0 mm
13:21 75.2 °F /  24.0 °C 46.4 °F /  8.0 °C 30.2 in /  1022.9 hPa West 5.4 mph /  8.7 km/h 5.4 mph /  8.7 km/h 36 % 0 in /  0.0 mm
13:26 74.3 °F /  23.5 °C 45 °F /  7.2 °C 30.2 in /  1021.9 hPa SSW 4.6 mph /  7.4 km/h 4.6 mph /  7.4 km/h 35 % 0 in /  0.0 mm
13:31 75.9 °F /  24.4 °C 46.2 °F /  7.9 °C 30.2 in /  1021.9 hPa SE 2.3 mph /  3.7 km/h 2.3 mph /  3.7 km/h 35 % 0 in /  0.0 mm
13:36 76.8 °F /  24.9 °C 47.1 °F /  8.4 °C 30.2 in /  1021.9 hPa SSW 6 mph /  9.7 km/h 6 mph /  9.7 km/h 35 % 0 in /  0.0 mm
13:41 76.8 °F /  24.9 °C 47.1 °F /  8.4 °C 30.2 in /  1021.9 hPa South 5.8 mph /  9.3 km/h 5.8 mph /  9.3 km/h 35 % 0 in /  0.0 mm
13:46 76.6 °F /  24.8 °C 46.2 °F /  7.9 °C 30.2 in /  1021.9 hPa West 5.9 mph /  9.5 km/h 5.9 mph /  9.5 km/h 34 % 0 in /  0.0 mm
13:51 76.5 °F /  24.7 °C 45.1 °F /  7.3 °C 30.2 in /  1021.9 hPa North 4.6 mph /  7.4 km/h 4.6 mph /  7.4 km/h 33 % 0 in /  0.0 mm
13:56 76.6 °F /  24.8 °C 45.3 °F /  7.4 °C 30.2 in /  1021.9 hPa North 4.6 mph /  7.4 km/h 4.6 mph /  7.4 km/h 33 % 0 in /  0.0 mm
14:01 75.7 °F /  24.3 °C 44.6 °F /  7.0 °C 30.2 in /  1021.9 hPa West 8.1 mph /  13.0 km/h 8.1 mph /  13.0 km/h 33 % 0 in /  0.0 mm
14:06 76.6 °F /  24.8 °C 44.6 °F /  7.0 °C 30.2 in /  1021.9 hPa SW 3.5 mph /  5.6 km/h 3.5 mph /  5.6 km/h 32 % 0 in /  0.0 mm
14:11 76.1 °F /  24.5 °C 44.1 °F /  6.7 °C 30.2 in /  1021.9 hPa SSE 5.8 mph /  9.3 km/h 5.8 mph /  9.3 km/h 32 % 0 in /  0.0 mm
14:16 77.4 °F /  25.2 °C 44.4 °F /  6.9 °C 30.2 in /  1021.9 hPa SW 3.6 mph /  5.8 km/h 3.6 mph /  5.8 km/h 31 % 0 in /  0.0 mm
14:21 76.8 °F /  24.9 °C 43.9 °F /  6.6 °C 30.2 in /  1021.9 hPa SW 5.8 mph /  9.3 km/h 5.8 mph /  9.3 km/h 31 % 0 in /  0.0 mm
14:26 77.9 °F /  25.5 °C 44.8 °F /  7.1 °C 30.2 in /  1021.9 hPa SSW 2.3 mph /  3.7 km/h 2.3 mph /  3.7 km/h 31 % 0 in /  0.0 mm
14:31 78.3 °F /  25.7 °C 44.2 °F /  6.8 °C 30.2 in /  1021.9 hPa SW 9.7 mph /  15.6 km/h 9.7 mph /  15.6 km/h 30 % 0 in /  0.0 mm
14:36 78.1 °F /  25.6 °C 43.2 °F /  6.2 °C 30.2 in /  1021.9 hPa SW 5.8 mph /  9.3 km/h 5.8 mph /  9.3 km/h 29 % 0 in /  0.0 mm
14:41 78.1 °F /  25.6 °C 44.1 °F /  6.7 °C 30.2 in /  1021.9 hPa West 4.6 mph /  7.4 km/h 4.6 mph /  7.4 km/h 30 % 0 in /  0.0 mm
14:46 77.5 °F /  25.3 °C 42.8 °F /  6.0 °C 30.2 in /  1021.9 hPa SW 9.2 mph /  14.8 km/h 9.2 mph /  14.8 km/h 29 % 0 in /  0.0 mm
14:47 77.5 °F /  25.3 °C 42.8 °F /  6.0 °C 30.2 in /  1021.9 hPa WNW 6.9 mph /  11.1 km/h 6.9 mph /  11.1 km/h 29 % 0 in /  0.0 mm
14:52 77 °F /  25.0 °C 42.3 °F /  5.7 °C 30.2 in /  1021.9 hPa WSW 3.5 mph /  5.6 km/h 3.5 mph /  5.6 km/h 29 % 0 in /  0.0 mm
14:57 77.4 °F /  25.2 °C 41.7 °F /  5.4 °C 30.2 in /  1021.9 hPa WNW 5.8 mph /  9.3 km/h 5.8 mph /  9.3 km/h 28 % 0 in /  0.0 mm
15:02 77.7 °F /  25.4 °C 43 °F /  6.1 °C 30.2 in /  1021.9 hPa South 5.8 mph /  9.3 km/h 5.8 mph /  9.3 km/h 29 % 0 in /  0.0 mm
15:07 78.3 °F /  25.7 °C 43.3 °F /  6.3 °C 30.2 in /  1021.9 hPa WNW 5.8 mph /  9.3 km/h 5.8 mph /  9.3 km/h 29 % 0 in /  0.0 mm
15:12 77.7 °F /  25.4 °C 43 °F /  6.1 °C 30.2 in /  1021.9 hPa WNW 4.6 mph /  7.4 km/h 4.6 mph /  7.4 km/h 29 % 0 in /  0.0 mm
15:17 77.5 °F /  25.3 °C 41.7 °F /  5.4 °C 30.2 in /  1021.9 hPa WSW 5.6 mph /  9.0 km/h 5.6 mph /  9.0 km/h 28 % 0 in /  0.0 mm
15:22 77.9 °F /  25.5 °C 43.2 °F /  6.2 °C 30.2 in /  1021.9 hPa SSW 3.5 mph /  5.6 km/h 3.5 mph /  5.6 km/h 29 % 0 in /  0.0 mm
15:27 77.7 °F /  25.4 °C 43.9 °F /  6.6 °C 30.2 in /  1021.9 hPa SSW 10 mph /  16.1 km/h 10 mph /  16.1 km/h 30 % 0 in /  0.0 mm
15:32 77.4 °F /  25.2 °C 43.5 °F /  6.4 °C 30.2 in /  1021.9 hPa SSW 5.8 mph /  9.3 km/h 5.8 mph /  9.3 km/h 30 % 0 in /  0.0 mm
15:37 78.4 °F /  25.8 °C 44.4 °F /  6.9 °C 30.2 in /  1021.9 hPa ESE 2.3 mph /  3.7 km/h 2.3 mph /  3.7 km/h 30 % 0 in /  0.0 mm
15:42 79 °F /  26.1 °C 45.9 °F /  7.7 °C 30.2 in /  1021.9 hPa NNW 3.5 mph /  5.6 km/h 3.5 mph /  5.6 km/h 31 % 0 in /  0.0 mm
15:47 78.8 °F /  26.0 °C 45.7 °F /  7.6 °C 30.2 in /  1021.9 hPa South 3.5 mph /  5.6 km/h 3.5 mph /  5.6 km/h 31 % 0 in /  0.0 mm
15:52 78.6 °F /  25.9 °C 45.3 °F /  7.4 °C 30.2 in /  1021.9 hPa South 8.1 mph /  13.0 km/h 8.1 mph /  13.0 km/h 31 % 0 in /  0.0 mm
15:57 78.4 °F /  25.8 °C 45.3 °F /  7.4 °C 30.2 in /  1021.9 hPa NE 6.9 mph /  11.1 km/h 6.9 mph /  11.1 km/h 31 % 0 in /  0.0 mm
16:02 78.3 °F /  25.7 °C 45.1 °F /  7.3 °C 30.2 in /  1021.9 hPa WSW 5.9 mph /  9.5 km/h 5.9 mph /  9.5 km/h 31 % 0 in /  0.0 mm
16:07 77.9 °F /  25.5 °C 44.1 °F /  6.7 °C 30.2 in /  1021.9 hPa SW 8.1 mph /  13.0 km/h 8.1 mph /  13.0 km/h 30 % 0 in /  0.0 mm
16:12 78.6 °F /  25.9 °C 45.3 °F /  7.4 °C 30.2 in /  1021.9 hPa SW 5.8 mph /  9.3 km/h 5.8 mph /  9.3 km/h 31 % 0 in /  0.0 mm
16:17 78.3 °F /  25.7 °C 44.2 °F /  6.8 °C 30.2 in /  1021.9 hPa SW 8.1 mph /  13.0 km/h 8.1 mph /  13.0 km/h 30 % 0 in /  0.0 mm
16:22 78.3 °F /  25.7 °C 45.1 °F /  7.3 °C 30.2 in /  1021.9 hPa South 8.1 mph /  13.0 km/h 8.1 mph /  13.0 km/h 31 % 0 in /  0.0 mm
16:27 78.4 °F /  25.8 °C 44.4 °F /  6.9 °C 30.2 in /  1021.9 hPa SW 5.8 mph /  9.3 km/h 5.8 mph /  9.3 km/h 30 % 0 in /  0.0 mm
16:32 78.1 °F /  25.6 °C 44.1 °F /  6.7 °C 30.2 in /  1021.9 hPa SW 5.8 mph /  9.3 km/h 5.8 mph /  9.3 km/h 30 % 0 in /  0.0 mm
16:37 77.7 °F /  25.4 °C 43.9 °F /  6.6 °C 30.2 in /  1021.9 hPa SSW 8.1 mph /  13.0 km/h 8.1 mph /  13.0 km/h 30 % 0 in /  0.0 mm
16:42 77.7 °F /  25.4 °C 43.9 °F /  6.6 °C 30.2 in /  1021.9 hPa West 4.6 mph /  7.4 km/h 4.6 mph /  7.4 km/h 30 % 0 in /  0.0 mm
16:47 77.7 °F /  25.4 °C 43.9 °F /  6.6 °C 30.2 in /  1021.9 hPa SSW 4.6 mph /  7.4 km/h 4.6 mph /  7.4 km/h 30 % 0 in /  0.0 mm
16:52 77.9 °F /  25.5 °C 44.1 °F /  6.7 °C 30.2 in /  1021.9 hPa WSW 5.8 mph /  9.3 km/h 5.8 mph /  9.3 km/h 30 % 0 in /  0.0 mm
16:57 77.7 °F /  25.4 °C 43.9 °F /  6.6 °C 30.2 in /  1021.9 hPa WSW 5.8 mph /  9.3 km/h 5.8 mph /  9.3 km/h 30 % 0 in /  0.0 mm
17:02 78.4 °F /  25.8 °C 45.3 °F /  7.4 °C 30.2 in /  1021.9 hPa SSW 4.6 mph /  7.4 km/h 4.6 mph /  7.4 km/h 31 % 0 in /  0.0 mm
17:07 79 °F /  26.1 °C 45 °F /  7.2 °C 30.2 in /  1020.9 hPa South 4.9 mph /  7.9 km/h 4.9 mph /  7.9 km/h 30 % 0 in /  0.0 mm
17:12 78.3 °F /  25.7 °C 45.1 °F /  7.3 °C 30.2 in /  1020.9 hPa SSW 5.8 mph /  9.3 km/h 5.8 mph /  9.3 km/h 31 % 0 in /  0.0 mm
17:17 77.4 °F /  25.2 °C 44.4 °F /  6.9 °C 30.2 in /  1020.9 hPa South 5.8 mph /  9.3 km/h 5.8 mph /  9.3 km/h 31 % 0 in /  0.0 mm
17:22 77.4 °F /  25.2 °C 44.4 °F /  6.9 °C 30.2 in /  1021.9 hPa WSW 5.8 mph /  9.3 km/h 5.8 mph /  9.3 km/h 31 % 0 in /  0.0 mm
17:27 77 °F /  25.0 °C 44.1 °F /  6.7 °C 30.2 in /  1021.9 hPa SW 8.1 mph /  13.0 km/h 8.1 mph /  13.0 km/h 31 % 0 in /  0.0 mm
17:32 75.7 °F /  24.3 °C 43.9 °F /  6.6 °C 30.2 in /  1021.9 hPa SW 11.5 mph /  18.5 km/h 11.5 mph /  18.5 km/h 32 % 0 in /  0.0 mm
17:37 75.7 °F /  24.3 °C 44.6 °F /  7.0 °C 30.2 in /  1020.9 hPa SW 9.2 mph /  14.8 km/h 9.2 mph /  14.8 km/h 33 % 0 in /  0.0 mm
17:42 75.7 °F /  24.3 °C 44.6 °F /  7.0 °C 30.2 in /  1020.9 hPa SW 4.6 mph /  7.4 km/h 4.6 mph /  7.4 km/h 33 % 0 in /  0.0 mm
17:47 75.9 °F /  24.4 °C 44.8 °F /  7.1 °C 30.2 in /  1020.9 hPa WSW 5.8 mph /  9.3 km/h 5.8 mph /  9.3 km/h 33 % 0 in /  0.0 mm
17:52 75.2 °F /  24.0 °C 44.1 °F /  6.7 °C 30.2 in /  1021.9 hPa SW 8.1 mph /  13.0 km/h 8.1 mph /  13.0 km/h 33 % 0 in /  0.0 mm
17:57 75 °F /  23.9 °C 44.8 °F /  7.1 °C 30.2 in /  1021.9 hPa West 10.4 mph /  16.7 km/h 10.4 mph /  16.7 km/h 34 % 0 in /  0.0 mm
18:03 75 °F /  23.9 °C 45.5 °F /  7.5 °C 30.2 in /  1021.9 hPa South 8.1 mph /  13.0 km/h 8.1 mph /  13.0 km/h 35 % 0 in /  0.0 mm
18:08 74.5 °F /  23.6 °C 45 °F /  7.2 °C 30.2 in /  1021.9 hPa SSW 8.1 mph /  13.0 km/h 8.1 mph /  13.0 km/h 35 % 0 in /  0.0 mm
18:13 73.9 °F /  23.3 °C 45.3 °F /  7.4 °C 30.2 in /  1021.9 hPa SW 3.5 mph /  5.6 km/h 3.5 mph /  5.6 km/h 36 % 0 in /  0.0 mm
18:18 74.1 °F /  23.4 °C 45.5 °F /  7.5 °C 30.2 in /  1021.9 hPa SSE 5.8 mph /  9.3 km/h 5.8 mph /  9.3 km/h 36 % 0 in /  0.0 mm
18:23 73.8 °F /  23.2 °C 45.9 °F /  7.7 °C 30.2 in /  1021.9 hPa SW 8.1 mph /  13.0 km/h 8.1 mph /  13.0 km/h 37 % 0 in /  0.0 mm
18:28 72.9 °F /  22.7 °C 45.9 °F /  7.7 °C 30.2 in /  1021.9 hPa WSW 5.8 mph /  9.3 km/h 5.8 mph /  9.3 km/h 38 % 0 in /  0.0 mm
18:33 72.9 °F /  22.7 °C 45.9 °F /  7.7 °C 30.2 in /  1021.9 hPa SSE 8.1 mph /  13.0 km/h 8.1 mph /  13.0 km/h 38 % 0 in /  0.0 mm
18:38 72.7 °F /  22.6 °C 45.7 °F /  7.6 °C 30.2 in /  1021.9 hPa SSW 5.8 mph /  9.3 km/h 5.8 mph /  9.3 km/h 38 % 0 in /  0.0 mm
18:43 73 °F /  22.8 °C 46.6 °F /  8.1 °C 30.2 in /  1021.9 hPa SW 3.5 mph /  5.6 km/h 3.5 mph /  5.6 km/h 39 % 0 in /  0.0 mm
18:48 72.7 °F /  22.6 °C 46.2 °F /  7.9 °C 30.2 in /  1021.9 hPa WSW 4.6 mph /  7.4 km/h 4.6 mph /  7.4 km/h 39 % 0 in /  0.0 mm
18:53 72.5 °F /  22.5 °C 46 °F /  7.8 °C 30.2 in /  1021.9 hPa West 7.6 mph /  12.2 km/h 7.6 mph /  12.2 km/h 39 % 0 in /  0.0 mm
18:58 71.8 °F /  22.1 °C 45.5 °F /  7.5 °C 30.2 in /  1021.9 hPa SW 8.1 mph /  13.0 km/h 8.1 mph /  13.0 km/h 39 % 0 in /  0.0 mm
19:03 72 °F /  22.2 °C 45.7 °F /  7.6 °C 30.2 in /  1021.9 hPa West 2.4 mph /  3.9 km/h 2.4 mph /  3.9 km/h 39 % 0 in /  0.0 mm
19:08 71.6 °F /  22.0 °C 46 °F /  7.8 °C 30.2 in /  1021.9 hPa SSE 4.9 mph /  7.9 km/h 4.9 mph /  7.9 km/h 40 % 0 in /  0.0 mm
19:13 70.9 °F /  21.6 °C 45.3 °F /  7.4 °C 30.2 in /  1021.9 hPa SSE 3.5 mph /  5.6 km/h 3.5 mph /  5.6 km/h 40 % 0 in /  0.0 mm
19:18 70.9 °F /  21.6 °C 45.3 °F /  7.4 °C 30.2 in /  1021.9 hPa SW 2.4 mph /  3.9 km/h 2.4 mph /  3.9 km/h 40 % 0 in /  0.0 mm
19:20 59.5 °F /  15.3 °C 50.2 °F /  10.1 °C 30.3 in /  1026.0 hPa NE 2 mph /  3.2 km/h 3 mph /  4.8 km/h 71 % 0 in /  0.0 mm
19:23 71.1 °F /  21.7 °C 45.5 °F /  7.5 °C 30.2 in /  1021.9 hPa South 2.3 mph /  3.7 km/h 2.3 mph /  3.7 km/h 40 % 0 in /  0.0 mm
19:28 70.9 °F /  21.6 °C 45.3 °F /  7.4 °C 30.2 in /  1021.9 hPa SSE 4.6 mph /  7.4 km/h 4.6 mph /  7.4 km/h 40 % 0 in /  0.0 mm
19:30 59.4 °F /  15.2 °C 50.4 °F /  10.2 °C 30.3 in /  1026.0 hPa ENE 2 mph /  3.2 km/h 2 mph /  3.2 km/h 72 % 0 in /  0.0 mm
19:33 70.2 °F /  21.2 °C 44.8 °F /  7.1 °C 30.2 in /  1021.9 hPa ESE 4.6 mph /  7.4 km/h 4.6 mph /  7.4 km/h 40 % 0 in /  0.0 mm
19:38 70.2 °F /  21.2 °C 45.3 °F /  7.4 °C 30.2 in /  1022.9 hPa WSW 2.3 mph /  3.7 km/h 2.3 mph /  3.7 km/h 41 % 0 in /  0.0 mm
19:40 59.4 °F /  15.2 °C 50 °F /  10.0 °C 30.3 in /  1026.0 hPa ENE 1 mph /  1.6 km/h 2 mph /  3.2 km/h 71 % 0 in /  0.0 mm
19:43 69.3 °F /  20.7 °C 46.4 °F /  8.0 °C 30.2 in /  1022.9 hPa SE 4.6 mph /  7.4 km/h 4.6 mph /  7.4 km/h 44 % 0 in /  0.0 mm
19:48 68.2 °F /  20.1 °C 46.6 °F /  8.1 °C 30.2 in /  1022.9 hPa ESE 5.8 mph /  9.3 km/h 5.8 mph /  9.3 km/h 46 % 0 in /  0.0 mm
19:50 59.2 °F /  15.1 °C 50.2 °F /  10.1 °C 30.3 in /  1026.0 hPa Calm   2 mph /  3.2 km/h 72 % 0 in /  0.0 mm
19:53 68 °F /  20.0 °C 47.7 °F /  8.7 °C 30.2 in /  1022.9 hPa ESE 6.4 mph /  10.3 km/h 6.4 mph /  10.3 km/h 48 % 0 in /  0.0 mm
19:58 67.8 °F /  19.9 °C 48 °F /  8.9 °C 30.2 in /  1022.9 hPa ENE 8.1 mph /  13.0 km/h 8.1 mph /  13.0 km/h 49 % 0 in /  0.0 mm
20:00 59 °F /  15.0 °C 50 °F /  10.0 °C 30.3 in /  1026.0 hPa Calm   3 mph /  4.8 km/h 72 % 0 in /  0.0 mm
20:03 66.9 °F /  19.4 °C 47.7 °F /  8.7 °C 30.2 in /  1022.9 hPa ENE 5.8 mph /  9.3 km/h 5.8 mph /  9.3 km/h 50 % 0 in /  0.0 mm
20:08 66.9 °F /  19.4 °C 48.2 °F /  9.0 °C 30.2 in /  1022.9 hPa ESE 5.8 mph /  9.3 km/h 5.8 mph /  9.3 km/h 51 % 0 in /  0.0 mm
20:10 59 °F /  15.0 °C 50 °F /  10.0 °C 30.3 in /  1026.0 hPa ESE 1 mph /  1.6 km/h 2 mph /  3.2 km/h 72 % 0 in /  0.0 mm
20:13 66.6 °F /  19.2 °C 47.8 °F /  8.8 °C 30.2 in /  1022.9 hPa SE 5.8 mph /  9.3 km/h 5.8 mph /  9.3 km/h 51 % 0 in /  0.0 mm
20:18 66.4 °F /  19.1 °C 47.7 °F /  8.7 °C 30.2 in /  1022.9 hPa ESE 8.1 mph /  13.0 km/h 8.1 mph /  13.0 km/h 51 % 0 in /  0.0 mm
20:20 58.8 °F /  14.9 °C 49.8 °F /  9.9 °C 30.3 in /  1026.0 hPa ENE 1 mph /  1.6 km/h 1 mph /  1.6 km/h 72 % 0 in /  0.0 mm
20:23 66.2 °F /  19.0 °C 47.5 °F /  8.6 °C 30.2 in /  1022.9 hPa East 8.1 mph /  13.0 km/h 8.1 mph /  13.0 km/h 51 % 0 in /  0.0 mm
20:28 66 °F /  18.9 °C 47.8 °F /  8.8 °C 30.2 in /  1022.9 hPa ESE 9.2 mph /  14.8 km/h 9.2 mph /  14.8 km/h 52 % 0 in /  0.0 mm
20:30 58.6 °F /  14.8 °C 49.6 °F /  9.8 °C 30.3 in /  1026.0 hPa Calm   2 mph /  3.2 km/h 72 % 0 in /  0.0 mm
20:33 65.7 °F /  18.7 °C 47.5 °F /  8.6 °C 30.2 in /  1022.9 hPa ENE 5.8 mph /  9.3 km/h 5.8 mph /  9.3 km/h 52 % 0 in /  0.0 mm
20:38 65.5 °F /  18.6 °C 47.5 °F /  8.6 °C 30.2 in /  1022.9 hPa ESE 6.9 mph /  11.1 km/h 6.9 mph /  11.1 km/h 52 % 0 in /  0.0 mm
20:40 58.5 °F /  14.7 °C 49.8 °F /  9.9 °C 30.3 in /  1026.0 hPa Calm   2 mph /  3.2 km/h 73 % 0 in /  0.0 mm
20:43 65.3 °F /  18.5 °C 47.7 °F /  8.7 °C 30.2 in /  1022.9 hPa ENE 6.9 mph /  11.1 km/h 6.9 mph /  11.1 km/h 53 % 0 in /  0.0 mm
20:48 65.1 °F /  18.4 °C 47.7 °F /  8.7 °C 30.2 in /  1022.9 hPa East 6.9 mph /  11.1 km/h 6.9 mph /  11.1 km/h 53 % 0 in /  0.0 mm
20:50 58.5 °F /  14.7 °C 49.5 °F /  9.7 °C 30.3 in /  1026.0 hPa Calm     72 % 0 in /  0.0 mm
20:53 64.8 °F /  18.2 °C 47.1 °F /  8.4 °C 30.2 in /  1023.9 hPa ESE 5.8 mph /  9.3 km/h 5.8 mph /  9.3 km/h 53 % 0 in /  0.0 mm
20:54 64.8 °F /  18.2 °C 47.1 °F /  8.4 °C 30.2 in /  1023.9 hPa East 5.8 mph /  9.3 km/h 5.8 mph /  9.3 km/h 53 % 0 in /  0.0 mm
20:58 64.8 °F /  18.2 °C 47.1 °F /  8.4 °C 30.2 in /  1023.9 hPa NNE 5.8 mph /  9.3 km/h 5.8 mph /  9.3 km/h 53 % 0 in /  0.0 mm
21:00 58.3 °F /  14.6 °C 49.6 °F /  9.8 °C 30.3 in /  1026.0 hPa Calm     73 % 0 in /  0.0 mm
21:03 64.6 °F /  18.1 °C 47.1 °F /  8.4 °C 30.2 in /  1023.9 hPa ESE 5.8 mph /  9.3 km/h 5.8 mph /  9.3 km/h 53 % 0 in /  0.0 mm
21:08 64.4 °F /  18.0 °C 47.5 °F /  8.6 °C 30.2 in /  1022.9 hPa ENE 5.6 mph /  9.0 km/h 5.6 mph /  9.0 km/h 54 % 0 in /  0.0 mm
21:10 58.3 °F /  14.6 °C 49.6 °F /  9.8 °C 30.3 in /  1026.0 hPa Calm     73 % 0 in /  0.0 mm
21:13 64 °F /  17.8 °C 47.5 °F /  8.6 °C 30.2 in /  1022.9 hPa ESE 4.6 mph /  7.4 km/h 4.6 mph /  7.4 km/h 55 % 0 in /  0.0 mm
21:18 64 °F /  17.8 °C 47.5 °F /  8.6 °C 30.2 in /  1022.9 hPa NE 5.8 mph /  9.3 km/h 6 mph /  9.7 km/h 55 % 0 in /  0.0 mm
21:20 58.1 °F /  14.5 °C 49.5 °F /  9.7 °C 30.3 in /  1026.0 hPa Calm     73 % 0 in /  0.0 mm
21:23 63.7 °F /  17.6 °C 47.1 °F /  8.4 °C 30.2 in /  1023.9 hPa East 5.8 mph /  9.3 km/h 5.8 mph /  9.3 km/h 55 % 0 in /  0.0 mm
21:28 63.7 °F /  17.6 °C 47.7 °F /  8.7 °C 30.2 in /  1023.9 hPa NNE 4.6 mph /  7.4 km/h 4.6 mph /  7.4 km/h 56 % 0 in /  0.0 mm
21:30 57.9 °F /  14.4 °C 49.3 °F /  9.6 °C 30.3 in /  1026.0 hPa Calm   1 mph /  1.6 km/h 73 % 0 in /  0.0 mm
21:33 63.5 °F /  17.5 °C 47.5 °F /  8.6 °C 30.2 in /  1023.9 hPa ESE 9.2 mph /  14.8 km/h 9.2 mph /  14.8 km/h 56 % 0 in /  0.0 mm
21:38 63.3 °F /  17.4 °C 47.3 °F /  8.5 °C 30.2 in /  1023.9 hPa East 5.8 mph /  9.3 km/h 5.8 mph /  9.3 km/h 56 % 0 in /  0.0 mm
21:40 57.7 °F /  14.3 °C 49.1 °F /  9.5 °C 30.3 in /  1026.0 hPa Calm     73 % 0 in /  0.0 mm
21:43 63.1 °F /  17.3 °C 47.1 °F /  8.4 °C 30.2 in /  1023.9 hPa ENE 6.9 mph /  11.1 km/h 6.9 mph /  11.1 km/h 56 % 0 in /  0.0 mm
21:48 63.1 °F /  17.3 °C 47.1 °F /  8.4 °C 30.2 in /  1023.9 hPa NE 5.8 mph /  9.3 km/h 5.8 mph /  9.3 km/h 56 % 0 in /  0.0 mm
21:50 57.4 °F /  14.1 °C 49.3 °F /  9.6 °C 30.3 in /  1026.0 hPa Calm   1 mph /  1.6 km/h 74 % 0 in /  0.0 mm
21:53 63 °F /  17.2 °C 47.5 °F /  8.6 °C 30.2 in /  1023.9 hPa ENE 8.1 mph /  13.0 km/h 8.1 mph /  13.0 km/h 57 % 0 in /  0.0 mm
21:58 62.8 °F /  17.1 °C 47.3 °F /  8.5 °C 30.2 in /  1023.9 hPa ESE 5.8 mph /  9.3 km/h 5.8 mph /  9.3 km/h 57 % 0 in /  0.0 mm
22:00 57.2 °F /  14.0 °C 48.9 °F /  9.4 °C 30.3 in /  1024.9 hPa Calm     74 % 0 in /  0.0 mm
22:03 62.8 °F /  17.1 °C 47.8 °F /  8.8 °C 30.2 in /  1023.9 hPa SSE 4.6 mph /  7.4 km/h 4.6 mph /  7.4 km/h 58 % 0 in /  0.0 mm
22:08 62.6 °F /  17.0 °C 48 °F /  8.9 °C 30.2 in /  1023.9 hPa ESE 4.9 mph /  7.9 km/h 4.9 mph /  7.9 km/h 59 % 0 in /  0.0 mm
22:10 56.8 °F /  13.8 °C 48.6 °F /  9.2 °C 30.3 in /  1024.9 hPa Calm     74 % 0 in /  0.0 mm
22:13 62.4 °F /  16.9 °C 48.7 °F /  9.3 °C 30.2 in /  1023.9 hPa ESE 3.5 mph /  5.6 km/h 3.5 mph /  5.6 km/h 61 % 0 in /  0.0 mm
22:18 62.2 °F /  16.8 °C 48.6 °F /  9.2 °C 30.2 in /  1023.9 hPa NNE 3.5 mph /  5.6 km/h 3.5 mph /  5.6 km/h 61 % 0 in /  0.0 mm
22:20 56.5 °F /  13.6 °C 48.6 °F /  9.2 °C 30.3 in /  1024.9 hPa Calm     75 % 0 in /  0.0 mm
22:23 61.9 °F /  16.6 °C 48.7 °F /  9.3 °C 30.2 in /  1023.9 hPa ENE 3.6 mph /  5.8 km/h 3.6 mph /  5.8 km/h 62 % 0 in /  0.0 mm
22:28 61.9 °F /  16.6 °C 49.1 °F /  9.5 °C 30.2 in /  1023.9 hPa ESE 5.8 mph /  9.3 km/h 5.8 mph /  9.3 km/h 63 % 0 in /  0.0 mm
22:30 56.1 °F /  13.4 °C 48.4 °F /  9.1 °C 30.3 in /  1024.9 hPa Calm     75 % 0 in /  0.0 mm
22:33 61.7 °F /  16.5 °C 49.8 °F /  9.9 °C 30.2 in /  1023.9 hPa ESE 5.8 mph /  9.3 km/h 5.8 mph /  9.3 km/h 65 % 0 in /  0.0 mm
22:38 61.5 °F /  16.4 °C 50.2 °F /  10.1 °C 30.2 in /  1022.9 hPa ENE 5.8 mph /  9.3 km/h 5.8 mph /  9.3 km/h 66 % 0 in /  0.0 mm
22:40 55.9 °F /  13.3 °C 48 °F /  8.9 °C 30.3 in /  1024.9 hPa Calm     75 % 0 in /  0.0 mm
22:43 61.3 °F /  16.3 °C 49.8 °F /  9.9 °C 30.2 in /  1022.9 hPa East 3.5 mph /  5.6 km/h 3.5 mph /  5.6 km/h 66 % 0 in /  0.0 mm
22:48 61.3 °F /  16.3 °C 50.4 °F /  10.2 °C 30.2 in /  1022.9 hPa East 5.8 mph /  9.3 km/h 5.8 mph /  9.3 km/h 67 % 0 in /  0.0 mm
22:50 55.8 °F /  13.2 °C 48.4 °F /  9.1 °C 30.3 in /  1024.9 hPa Calm   1 mph /  1.6 km/h 76 % 0 in /  0.0 mm
22:53 61.3 °F /  16.3 °C 50.7 °F /  10.4 °C 30.2 in /  1023.9 hPa ENE 3.8 mph /  6.1 km/h 3.8 mph /  6.1 km/h 68 % 0 in /  0.0 mm
22:58 61.2 °F /  16.2 °C 50.5 °F /  10.3 °C 30.2 in /  1023.9 hPa NE 4.6 mph /  7.4 km/h 4.6 mph /  7.4 km/h 68 % 0 in /  0.0 mm
23:00 55.6 °F /  13.1 °C 48 °F /  8.9 °C 30.3 in /  1024.9 hPa Calm   1 mph /  1.6 km/h 76 % 0 in /  0.0 mm
23:03 61.2 °F /  16.2 °C 50.5 °F /  10.3 °C 30.2 in /  1023.9 hPa ENE 5.8 mph /  9.3 km/h 5.8 mph /  9.3 km/h 68 % 0 in /  0.0 mm
23:08 61 °F /  16.1 °C 50.7 °F /  10.4 °C 30.3 in /  1024.9 hPa ENE 3.3 mph /  5.3 km/h 3.3 mph /  5.3 km/h 69 % 0 in /  0.0 mm
23:10 55.4 °F /  13.0 °C 48.4 °F /  9.1 °C 30.3 in /  1024.9 hPa Calm     77 % 0 in /  0.0 mm
23:13 61 °F /  16.1 °C 50.7 °F /  10.4 °C 30.3 in /  1024.9 hPa East 3.6 mph /  5.8 km/h 3.6 mph /  5.8 km/h 69 % 0 in /  0.0 mm
23:18 60.8 °F /  16.0 °C 50.5 °F /  10.3 °C 30.3 in /  1024.9 hPa ESE 3.6 mph /  5.8 km/h 3.6 mph /  5.8 km/h 69 % 0 in /  0.0 mm
23:20 55 °F /  12.8 °C 48 °F /  8.9 °C 30.3 in /  1024.9 hPa Calm     77 % 0 in /  0.0 mm
23:23 60.8 °F /  16.0 °C 51.1 °F /  10.6 °C 30.3 in /  1024.9 hPa ESE 4.6 mph /  7.4 km/h 4.6 mph /  7.4 km/h 70 % 0 in /  0.0 mm
23:28 60.6 °F /  15.9 °C 50.7 °F /  10.4 °C 30.3 in /  1024.9 hPa East 2.3 mph /  3.7 km/h 2.6 mph /  4.2 km/h 70 % 0 in /  0.0 mm
23:30 54.7 °F /  12.6 °C 47.7 °F /  8.7 °C 30.3 in /  1024.9 hPa Calm   1 mph /  1.6 km/h 77 % 0 in /  0.0 mm
23:33 60.6 °F /  15.9 °C 50.7 °F /  10.4 °C 30.3 in /  1024.9 hPa ENE 3.5 mph /  5.6 km/h 3.5 mph /  5.6 km/h 70 % 0 in /  0.0 mm
23:38 60.6 °F /  15.9 °C 51.4 °F /  10.8 °C 30.3 in /  1026.0 hPa ENE 3.5 mph /  5.6 km/h 3.5 mph /  5.6 km/h 72 % 0 in /  0.0 mm
23:40 54.7 °F /  12.6 °C 48 °F /  8.9 °C 30.3 in /  1024.9 hPa Calm     78 % 0 in /  0.0 mm
23:43 60.4 °F /  15.8 °C 51.1 °F /  10.6 °C 30.3 in /  1026.0 hPa NE 4 mph /  6.4 km/h 4 mph /  6.4 km/h 71 % 0 in /  0.0 mm
23:44 60.4 °F /  15.8 °C 51.1 °F /  10.6 °C 30.3 in /  1026.0 hPa ENE 4.6 mph /  7.4 km/h 4.6 mph /  7.4 km/h 71 % 0 in /  0.0 mm
23:49 60.3 °F /  15.7 °C 50.7 °F /  10.4 °C 30.3 in /  1026.0 hPa East 4.6 mph /  7.4 km/h 4.6 mph /  7.4 km/h 71 % 0 in /  0.0 mm
23:50 54.5 °F /  12.5 °C 47.8 °F /  8.8 °C 30.3 in /  1024.9 hPa Calm     78 % 0 in /  0.0 mm
23:54 60.1 °F /  15.6 °C 50.5 °F /  10.3 °C 30.3 in /  1026.0 hPa ENE 2.9 mph /  4.7 km/h 2.9 mph /  4.7 km/h 71 % 0 in /  0.0 mm
23:59 60.1 °F /  15.6 °C 50.5 °F /  10.3 °C 30.3 in /  1026.0 hPa East 2.3 mph /  3.7 km/h 2.3 mph /  3.7 km/h 71 % 0 in /  0.0 mm
Meteo Sesrovires
Elogis d' Weather Underground - 3.75 mb

Guio original per  Jim McMurry - jmcmurry@mwt.net Adaptat per a la plantilla per  Wim van der Kuil - Leuven-Template.eu

Trobareu la nostra informacio del temps tambe a:

Weather Underground

AWEKAS